Time;durP1;ratioP1;P1;durP2;ratioP2;P2;SDS_P1;SDS_P2;PMS_P1;PMS_P2;Temp;Humidity;BMP_temperature;BMP_pressure;BME280_temperature;BME280_humidity;BME280_pressure;Samples;Min_cycle;Max_cycle;Signal;HPM_P1;HPM_P2
2022/08/02 00:00:15;;;;;;;1.83;1.63;;;17.50;99.90;;;17.46;100.00;97421.66;4992352;28;20026;-50
2022/08/02 00:02:42;;;;;;;2.28;1.60;;;17.50;99.90;;;17.43;100.00;97416.56;4988466;28;20037;-50
2022/08/02 00:05:09;;;;;;;2.40;1.67;;;17.50;99.90;;;17.43;100.00;97420.06;4980563;28;20038;-50
2022/08/02 00:07:35;;;;;;;2.63;1.80;;;17.50;99.90;;;17.43;100.00;97413.88;4987062;28;20072;-50
2022/08/02 00:10:03;;;;;;;2.55;1.90;;;17.50;99.90;;;17.43;100.00;97413.88;4988211;28;20045;-50
2022/08/02 00:12:28;;;;;;;2.13;1.80;;;17.50;99.90;;;17.41;100.00;97413.09;4982016;28;20034;-51
2022/08/02 00:14:54;;;;;;;2.67;1.88;;;17.50;99.90;;;17.40;100.00;97414.06;4983079;28;20059;-50
2022/08/02 00:17:20;;;;;;;2.17;1.95;;;17.50;99.90;;;17.40;100.00;97414.06;4985326;28;20069;-51
2022/08/02 00:19:45;;;;;;;2.63;1.92;;;17.50;99.90;;;17.39;100.00;97418.56;4983684;28;20037;-52
2022/08/02 00:22:11;;;;;;;2.80;2.28;;;17.50;99.90;;;17.41;100.00;97431.75;4966556;28;20172;-52
2022/08/02 00:24:37;;;;;;;2.78;2.00;;;17.40;99.90;;;17.40;100.00;97427.41;4981159;28;20291;-50
2022/08/02 00:27:03;;;;;;;5.35;2.35;;;17.50;99.90;;;17.36;100.00;97419.59;4984587;28;20130;-50
2022/08/02 00:29:29;;;;;;;2.60;1.80;;;17.50;99.90;;;17.38;100.00;97429.31;4986420;28;20065;-51
2022/08/02 00:31:56;;;;;;;2.70;2.20;;;17.50;99.90;;;17.36;100.00;97424.94;4982959;28;20087;-51
2022/08/02 00:34:22;;;;;;;3.00;2.08;;;17.50;99.90;;;17.35;100.00;97415.25;4992679;28;20049;-50
2022/08/02 00:36:49;;;;;;;3.03;2.20;;;17.40;99.90;;;17.33;100.00;97414.44;4993660;28;20034;-50
2022/08/02 00:39:14;;;;;;;2.65;2.00;;;17.40;99.90;;;17.31;100.00;97427.03;4991077;28;20533;-51
2022/08/02 00:41:49;;;;;;;3.85;2.13;;;17.40;99.90;;;17.29;100.00;97415.63;4990173;28;20164;-50
2022/08/02 00:44:17;;;;;;;3.30;2.10;;;17.40;99.90;;;17.31;100.00;97427.03;4987899;28;20030;-47
2022/08/02 00:46:43;;;;;;;3.50;2.30;;;17.40;99.90;;;17.32;100.00;97425.25;4990078;28;20608;-49
2022/08/02 00:49:11;;;;;;;2.78;2.45;;;17.40;99.90;;;17.34;100.00;97421.50;4988855;28;20629;-47
2022/08/02 00:51:38;;;;;;;3.00;2.13;;;17.40;99.90;;;17.33;100.00;97426.94;4985349;28;20034;-49
2022/08/02 00:54:04;;;;;;;2.95;2.30;;;17.40;99.90;;;17.32;100.00;97425.25;4987462;28;20029;-49
2022/08/02 00:56:30;;;;;;;2.42;2.20;;;17.40;99.90;;;17.32;100.00;97423.41;4982899;28;20124;-48
2022/08/02 00:58:55;;;;;;;3.63;2.40;;;17.50;99.90;;;17.32;100.00;97417.25;4984420;28;20412;-49
2022/08/02 01:01:37;;;;;;;3.33;2.53;;;17.40;99.90;;;17.28;100.00;97416.59;4983509;28;20038;-49
2022/08/02 01:04:10;;;;;;;3.03;2.40;;;17.40;99.90;;;17.30;100.00;97417.34;4988431;28;20033;-50
2022/08/02 01:06:38;;;;;;;2.80;2.08;;;17.40;99.90;;;17.28;100.00;97407.72;4994780;28;20519;-47
2022/08/02 01:09:05;;;;;;;2.50;2.00;;;17.40;99.90;;;17.25;100.00;97411.44;4995181;28;20547;-50
2022/08/02 01:11:32;;;;;;;2.83;2.13;;;17.40;99.90;;;17.22;100.00;97411.63;4990911;28;20335;-48
2022/08/02 01:14:07;;;;;;;2.53;1.77;;;17.30;99.90;;;17.20;100.00;97410.03;4994313;28;20033;-47
2022/08/02 01:16:45;;;;;;;2.67;2.38;;;17.30;99.90;;;17.17;100.00;97413.72;4994632;28;20048;-48
2022/08/02 01:19:36;;;;;;;2.15;1.95;;;17.30;99.90;;;17.15;100.00;97426.28;4979956;28;20041;-46
2022/08/02 01:22:47;;;;;;;2.30;2.10;;;17.30;99.90;;;17.12;100.00;97421.16;4994063;28;20033;-48
2022/08/02 01:25:34;;;;;;;2.95;2.22;;;17.30;99.90;;;17.10;100.00;97425.72;4995039;28;20380;-47
2022/08/02 01:28:34;;;;;;;5.47;2.30;;;17.20;99.90;;;17.09;100.00;97427.53;4993171;28;20030;-46
2022/08/02 01:31:12;;;;;;;3.92;2.50;;;17.20;99.90;;;17.06;100.00;97425.06;4970754;28;20152;-46
2022/08/02 01:33:50;;;;;;;2.90;2.20;;;17.20;99.90;;;17.05;100.00;97435.81;4990833;28;20049;-47
2022/08/02 01:36:19;;;;;;;3.03;2.38;;;17.20;99.90;;;17.05;100.00;97433.16;4990799;28;20552;-51
2022/08/02 01:38:49;;;;;;;3.70;2.60;;;17.20;99.90;;;17.01;100.00;97429.81;4964970;28;20038;-48
2022/08/02 01:41:21;;;;;;;2.85;1.80;;;17.20;99.90;;;17.00;100.00;97432.59;4967209;28;20034;-50
2022/08/02 01:43:51;;;;;;;2.60;2.28;;;17.20;99.90;;;17.01;100.00;97431.63;4974707;28;20037;-49
2022/08/02 01:46:19;;;;;;;2.92;2.30;;;17.20;99.90;;;16.99;100.00;97434.38;4992693;28;20116;-51
2022/08/02 01:48:46;;;;;;;2.40;2.00;;;17.20;99.90;;;16.98;100.00;97438.88;4988297;28;20065;-51
2022/08/02 01:51:16;;;;;;;4.50;2.13;;;17.10;99.90;;;16.96;100.00;97438.13;4988825;28;20042;-49
2022/08/02 01:53:47;;;;;;;2.72;2.40;;;17.20;99.90;;;17.00;100.00;97440.59;4993467;28;20038;-52
2022/08/02 01:56:15;;;;;;;5.32;2.67;;;17.10;99.90;;;16.98;100.00;97436.22;4973290;28;20041;-50
2022/08/02 01:58:42;;;;;;;5.05;2.30;;;17.20;99.90;;;16.99;100.00;97439.72;4974045;28;20076;-51
2022/08/02 02:01:09;;;;;;;3.45;2.20;;;17.20;99.90;;;16.95;100.00;97447.03;4986512;28;20044;-50
2022/08/02 02:03:38;;;;;;;3.28;2.28;;;17.20;99.90;;;16.91;100.00;97440.19;4987547;28;22117;-51
2022/08/02 02:06:06;;;;;;;2.58;2.38;;;17.10;99.90;;;16.93;100.00;97432.97;4992181;28;20026;-51
2022/08/02 02:08:37;;;;;;;2.95;2.38;;;17.10;99.90;;;16.90;100.00;97446.47;4972625;28;20037;-51
2022/08/02 02:11:05;;;;;;;3.05;2.10;;;17.10;99.90;;;16.90;100.00;97440.28;4991361;28;20307;-52
2022/08/02 02:13:31;;;;;;;3.00;2.20;;;17.10;99.90;;;16.89;100.00;97441.25;4992342;28;20060;-51
2022/08/02 02:16:02;;;;;;;2.03;1.80;;;17.10;99.90;;;16.91;100.00;97444.69;4993250;28;20076;-50
2022/08/02 02:18:29;;;;;;;4.03;2.17;;;17.10;99.90;;;16.90;100.00;97443.81;4972338;28;20876;-49
2022/08/02 02:20:56;;;;;;;3.33;2.20;;;17.10;99.90;;;16.89;100.00;97438.59;4994724;28;20061;-52
2022/08/02 02:23:21;;;;;;;2.42;2.00;;;17.10;99.90;;;16.88;100.00;97439.53;4975341;28;20619;-53
2022/08/02 02:25:48;;;;;;;2.63;1.95;;;17.10;99.90;;;16.81;100.00;97425.69;4992677;28;20049;-50
2022/08/02 02:28:29;;;;;;;2.47;1.98;;;17.00;99.90;;;16.82;100.00;97432.75;4969078;28;20025;-51
2022/08/02 02:31:08;;;;;;;2.72;2.10;;;17.00;99.90;;;16.80;100.00;97432.84;4985564;28;20575;-51
2022/08/02 02:33:49;;;;;;;3.15;2.00;;;17.00;99.90;;;16.80;100.00;97434.66;4989603;28;20039;-48
2022/08/02 02:36:17;;;;;;;3.88;2.05;;;16.90;99.90;;;16.77;100.00;97418.84;4972291;28;20477;-50
2022/08/02 02:38:45;;;;;;;2.03;1.70;;;16.90;99.90;;;16.72;100.00;97424.44;4970897;28;20062;-51
2022/08/02 02:41:12;;;;;;;2.40;1.90;;;16.90;99.90;;;16.69;100.00;97422.00;4972373;28;20572;-51
2022/08/02 02:43:40;;;;;;;2.47;1.70;;;16.80;99.90;;;16.64;100.00;97425.91;4973536;28;21154;-50
2022/08/02 02:46:07;;;;;;;2.47;2.15;;;16.80;99.90;;;16.59;100.00;97421.69;4971685;28;20496;-46
2022/08/02 02:48:35;;;;;;;3.15;1.70;;;16.70;99.90;;;16.55;100.00;97420.19;4986395;28;20042;-47
2022/08/02 02:51:04;;;;;;;2.58;1.60;;;16.70;99.90;;;16.52;100.00;97423.00;4973080;28;20516;-46
2022/08/02 02:53:30;;;;;;;1.90;1.52;;;16.70;99.90;;;16.46;100.00;97407.44;4992281;28;20030;-48
2022/08/02 02:55:56;;;;;;;2.38;2.05;;;16.60;99.90;;;16.44;100.00;97409.34;4988759;28;20033;-46
2022/08/02 02:58:23;;;;;;;2.22;1.92;;;16.60;99.90;;;16.44;100.00;97412.00;4989333;28;20112;-50
2022/08/02 03:03:34;;;;;;;2.15;1.83;;;16.60;99.90;;;16.36;100.00;97400.94;4989422;28;20053;-49
2022/08/02 03:06:00;;;;;;;2.67;1.77;;;16.60;99.90;;;16.41;100.00;97406.84;4989166;28;20029;-48
2022/08/02 03:08:26;;;;;;;4.35;1.90;;;16.60;99.90;;;16.39;100.00;97414.91;4986890;28;20033;-48
2022/08/02 03:10:52;;;;;;;2.38;1.55;;;16.50;99.90;;;16.37;100.00;97408.84;4989078;28;20088;-51
2022/08/02 03:13:18;;;;;;;2.08;1.70;;;16.50;99.90;;;16.31;100.00;97403.91;4974893;28;20054;-47
2022/08/02 03:15:45;;;;;;;1.90;1.80;;;16.50;99.90;;;16.31;100.00;97406.56;4985579;28;20045;-46
2022/08/02 03:18:37;;;;;;;6.20;2.00;;;16.50;99.90;;;16.29;100.00;97420.88;4996126;28;20046;-48
2022/08/02 03:21:06;;;;;;;3.05;2.15;;;16.40;99.90;;;16.27;100.00;97412.13;4991181;28;20029;-47
2022/08/02 03:23:33;;;;;;;4.22;1.70;;;16.40;99.90;;;16.25;100.00;97414.03;4992976;28;20061;-50
2022/08/02 03:26:00;;;;;;;3.13;1.77;;;16.40;99.90;;;16.25;100.00;97419.38;4986804;28;20025;-48
2022/08/02 03:28:26;;;;;;;3.83;2.15;;;16.40;99.90;;;16.23;100.00;97425.63;4983222;28;20046;-49
2022/08/02 03:30:52;;;;;;;2.53;1.88;;;16.40;99.90;;;16.21;100.00;97419.53;4990329;28;20428;-48
2022/08/02 03:33:19;;;;;;;2.97;2.20;;;16.30;99.90;;;16.18;100.00;97421.53;4991052;28;20042;-46
2022/08/02 03:35:47;;;;;;;3.40;1.95;;;16.30;99.90;;;16.17;100.00;97419.81;4988178;28;20179;-47
2022/08/02 03:38:15;;;;;;;2.95;1.80;;;16.30;99.90;;;16.14;100.00;97420.84;4985783;28;20037;-50
2022/08/02 03:40:43;;;;;;;4.38;2.00;;;16.30;99.90;;;16.12;100.00;97420.09;4977304;28;20116;-46
2022/08/02 03:43:09;;;;;;;2.20;2.00;;;16.20;99.90;;;16.11;100.00;97425.50;4983471;28;20034;-47
2022/08/02 03:45:38;;;;;;;2.00;1.80;;;16.30;99.90;;;16.09;100.00;97430.91;4962814;28;20092;-46
2022/08/02 03:48:04;;;;;;;2.50;1.77;;;16.30;99.90;;;16.09;100.00;97428.25;4954315;28;20390;-47
2022/08/02 03:50:32;;;;;;;2.30;1.60;;;16.20;99.90;;;16.09;100.00;97427.41;4993349;28;20045;-47
2022/08/02 03:52:59;;;;;;;2.47;1.98;;;16.20;99.90;;;16.09;100.00;97433.56;4987995;28;20042;-48
2022/08/02 03:55:25;;;;;;;2.47;1.77;;;16.20;99.90;;;16.09;100.00;97432.72;4972399;28;20675;-48
2022/08/02 03:57:52;;;;;;;3.13;1.85;;;16.20;99.90;;;16.07;100.00;97426.63;4984464;28;20025;-46
2022/08/02 04:00:21;;;;;;;2.80;2.00;;;16.20;99.90;;;16.11;100.00;97441.44;4986039;28;20026;-49
2022/08/02 04:02:47;;;;;;;2.17;1.92;;;16.20;99.90;;;16.12;100.00;97444.03;4989443;28;20104;-49
2022/08/02 04:05:14;;;;;;;2.58;2.00;;;16.30;99.90;;;16.13;100.00;97442.22;4971133;28;20038;-46
2022/08/02 04:07:40;;;;;;;2.50;2.08;;;16.30;99.90;;;16.15;100.00;97442.97;4988905;28;20477;-46
2022/08/02 04:10:06;;;;;;;3.88;2.22;;;16.30;99.90;;;16.17;100.00;97454.41;4975109;28;20303;-46
2022/08/02 04:12:32;;;;;;;2.28;2.03;;;16.30;99.90;;;16.17;100.00;97455.25;4971100;28;20448;-48
2022/08/02 04:14:58;;;;;;;3.13;2.17;;;16.30;99.90;;;16.19;100.00;97458.69;4990728;28;20037;-46
2022/08/02 04:17:26;;;;;;;3.05;2.20;;;16.30;99.90;;;16.20;100.00;97455.09;4989250;28;20033;-46
2022/08/02 04:20:04;;;;;;;2.35;2.10;;;16.40;99.90;;;16.23;100.00;97464.69;4982248;28;20080;-47
2022/08/02 04:23:06;;;;;;;3.42;1.98;;;16.40;99.90;;;16.27;100.00;97468.03;4978168;28;20235;-47
2022/08/02 04:25:33;;;;;;;2.50;2.10;;;16.40;99.90;;;16.20;100.00;97446.22;4978297;28;20044;-50
2022/08/02 04:28:02;;;;;;;3.05;2.13;;;16.40;99.90;;;16.35;100.00;97469.28;4969444;28;20457;-45
2022/08/02 04:30:30;;;;;;;2.33;2.13;;;16.50;99.90;;;16.40;100.00;97471.66;4991020;28;20095;-47
2022/08/02 04:32:55;;;;;;;2.72;2.28;;;16.50;99.90;;;16.42;100.00;97472.44;4977792;28;20601;-46
2022/08/02 04:35:23;;;;;;;3.20;2.05;;;16.60;99.90;;;16.45;100.00;97464.25;5002775;28;20029;-47
2022/08/02 04:37:49;;;;;;;3.10;2.50;;;16.60;99.90;;;16.48;100.00;97466.75;4980811;28;20040;-48
2022/08/02 04:40:15;;;;;;;2.60;2.40;;;16.70;99.90;;;16.56;100.00;97482.25;4976723;28;20058;-47
2022/08/02 04:42:41;;;;;;;2.53;2.00;;;16.70;99.90;;;16.65;100.00;97486.16;4992495;28;20065;-47
2022/08/02 04:45:08;;;;;;;2.25;2.05;;;16.70;99.90;;;16.70;100.00;97484.94;4986648;28;20077;-46
2022/08/02 04:47:35;;;;;;;2.20;2.00;;;16.80;99.90;;;16.78;100.00;97477.34;4995207;28;20033;-46
2022/08/02 04:50:01;;;;;;;3.17;2.35;;;16.90;99.90;;;16.82;100.00;97472.69;4998428;28;20456;-45
2022/08/02 04:52:26;;;;;;;2.55;2.20;;;16.90;99.90;;;16.95;100.00;97484.34;4995311;28;20044;-46
2022/08/02 04:54:52;;;;;;;2.00;1.80;;;17.00;99.90;;;17.03;100.00;97478.56;4991436;28;20379;-46
2022/08/02 05:00:07;;;;;;;5.75;2.17;;;17.30;99.90;;;17.28;100.00;97471.69;4993382;28;20499;-48
2022/08/02 05:02:34;;;;;;;4.13;2.10;;;17.40;99.90;;;17.32;100.00;97459.88;4994480;28;20041;-47
2022/08/02 05:05:00;;;;;;;2.00;1.80;;;17.50;99.90;;;17.58;100.00;97476.88;4998643;28;20038;-49
2022/08/02 05:07:25;;;;;;;2.72;2.10;;;17.70;99.90;;;17.71;100.00;97482.28;4998629;28;20090;-47
2022/08/02 05:09:51;;;;;;;2.72;2.20;;;17.80;99.90;;;17.86;100.00;97488.47;4988439;28;20108;-47
2022/08/02 05:12:20;;;;;;;3.55;2.40;;;18.00;99.90;;;17.98;100.00;97479.69;4976863;28;20112;-46
2022/08/02 05:14:47;;;;;;;2.67;2.25;;;18.10;99.90;;;18.05;100.00;97464.97;4997365;28;20095;-46
2022/08/02 05:17:13;;;;;;;3.47;2.10;;;18.20;99.90;;;18.26;100.00;97484.00;4988753;28;20037;-46
2022/08/02 05:19:39;;;;;;;4.35;2.00;;;18.30;99.90;;;18.41;100.00;97489.28;4996770;28;20701;-48
2022/08/02 05:22:05;;;;;;;3.05;1.73;;;18.50;99.90;;;18.54;100.00;97476.84;4999031;28;20088;-47
2022/08/02 05:24:30;;;;;;;1.73;1.63;;;18.70;99.90;;;18.76;100.00;97480.72;4994679;28;20410;-47
2022/08/02 05:26:56;;;;;;;2.33;2.13;;;18.80;99.90;;;18.89;100.00;97479.75;4987991;28;20060;-48
2022/08/02 05:29:22;;;;;;;3.50;2.00;;;19.00;99.90;;;19.04;100.00;97479.66;5004543;28;20029;-46
2022/08/02 05:31:48;;;;;;;2.97;2.25;;;19.20;99.90;;;19.05;100.00;97487.56;4998704;28;20034;-46
2022/08/02 05:34:13;;;;;;;2.85;1.98;;;19.20;99.90;;;19.15;100.00;97477.09;4983003;28;20037;-48
2022/08/02 05:36:40;;;;;;;1.92;1.75;;;19.30;99.90;;;19.18;100.00;97478.69;5002528;28;20053;-48
2022/08/02 05:39:05;;;;;;;1.50;1.40;;;19.30;99.90;;;19.23;100.00;97471.19;5002803;28;20042;-49
2022/08/02 05:41:31;;;;;;;3.92;1.38;;;19.30;99.90;;;19.27;100.00;97470.00;5029833;23;20369;-42
2022/08/02 05:43:56;;;;;;;2.05;1.80;;;19.30;99.90;;;19.59;100.00;97466.84;5012737;28;20029;-45
2022/08/02 05:46:23;;;;;;;2.55;1.92;;;19.50;99.90;;;19.73;100.00;97479.22;5011800;28;20026;-44
2022/08/02 05:48:49;;;;;;;1.92;1.63;;;19.70;99.90;;;19.82;100.00;97473.25;5016308;28;20428;-45
2022/08/02 05:51:35;;;;;;;2.75;2.10;;;19.80;99.90;;;19.83;100.00;97486.50;5002373;28;20824;-44
2022/08/02 05:54:26;;;;;;;3.20;1.85;;;19.90;99.90;;;19.88;100.00;97478.13;5003557;28;20037;-42
2022/08/02 05:57:10;;;;;;;4.25;1.85;;;19.90;99.90;;;19.91;100.00;97490.44;4998283;28;20033;-42
2022/08/02 05:59:44;;;;;;;2.38;1.92;;;20.00;99.90;;;19.84;100.00;97485.53;4983189;28;20460;-44
2022/08/02 06:02:32;;;;;;;2.20;1.58;;;19.90;99.90;;;19.77;100.00;97488.78;4992960;28;20053;-46
2022/08/02 06:05:21;;;;;;;2.10;1.70;;;19.90;99.90;;;19.70;100.00;97485.66;4989893;28;20022;-42
2022/08/02 06:07:48;;;;;;;2.80;2.10;;;19.80;99.90;;;19.75;100.00;97490.72;5000907;28;20057;-45
2022/08/02 06:10:19;;;;;;;3.03;1.95;;;19.80;99.90;;;19.82;100.00;97490.13;4996745;28;20026;-43
2022/08/02 06:13:02;;;;;;;2.13;1.60;;;19.80;99.90;;;19.90;100.00;97492.28;4999244;28;20026;-43
2022/08/02 06:15:28;;;;;;;2.40;1.80;;;20.00;99.90;;;19.85;100.00;97486.41;5001633;28;20042;-42
2022/08/02 06:17:54;;;;;;;1.98;1.77;;;20.00;99.90;;;19.92;100.00;97490.34;5000399;28;20046;-43
2022/08/02 06:20:20;;;;;;;2.35;1.75;;;20.00;99.90;;;19.98;99.40;97492.56;4982360;28;20489;-47
2022/08/02 06:22:47;;;;;;;2.33;1.95;;;20.10;99.90;;;20.07;99.01;97496.38;4979970;28;20034;-46
2022/08/02 06:25:13;;;;;;;2.17;1.85;;;20.10;99.90;;;20.17;98.04;97500.09;4998296;28;20401;-45
2022/08/02 06:27:40;;;;;;;2.78;2.08;;;20.20;99.90;;;20.35;96.81;97497.84;5001126;28;20411;-42
2022/08/02 06:30:08;;;;;;;4.55;1.92;;;20.40;99.90;;;20.48;95.28;97500.47;4998768;28;20026;-46
2022/08/02 06:32:34;;;;;;;2.95;2.20;;;20.50;99.90;;;20.54;94.92;97497.31;4997214;28;20157;-43
2022/08/02 06:35:04;;;;;;;2.25;1.90;;;20.50;99.90;;;20.60;94.76;97494.16;5002520;28;20100;-43
2022/08/02 06:37:43;;;;;;;2.70;2.15;;;20.60;99.90;;;20.67;93.69;97491.03;4998280;28;20064;-43
2022/08/02 06:40:31;;;;;;;4.20;1.95;;;20.70;99.90;;;20.68;91.22;97485.56;4982550;28;20033;-44
2022/08/02 06:43:12;;;;;;;2.05;1.70;;;20.70;99.90;;;20.78;91.73;97485.69;4981907;28;20045;-42
2022/08/02 06:45:38;;;;;;;2.22;1.90;;;20.80;99.90;;;20.88;91.99;97491.22;4999361;28;20117;-42
2022/08/02 06:48:06;;;;;;;3.03;2.00;;;20.90;99.90;;;20.95;89.73;97482.56;4983930;28;20033;-41
2022/08/02 06:50:32;;;;;;;2.45;1.95;;;21.00;99.90;;;21.06;89.61;97489.78;4996691;28;20544;-43
2022/08/02 06:52:57;;;;;;;3.08;2.00;;;21.10;99.90;;;21.17;89.37;97486.25;5001845;28;20311;-42
2022/08/02 06:55:23;;;;;;;3.58;2.08;;;21.20;99.90;;;21.26;87.56;97485.53;4996245;28;20036;-42
2022/08/02 06:57:49;;;;;;;4.32;1.88;;;21.30;99.90;;;21.36;86.70;97497.25;5001406;28;20026;-42
2022/08/02 07:00:15;;;;;;;3.05;2.10;;;21.40;99.90;;;21.47;85.43;97504.47;4998688;28;20041;-42
2022/08/02 07:02:41;;;;;;;4.45;2.40;;;21.50;99.90;;;21.48;82.48;97500.81;5000856;28;20032;-42
2022/08/02 07:05:08;;;;;;;2.28;1.85;;;21.50;99.90;;;21.58;83.60;97500.09;4999116;28;20038;-43
2022/08/02 07:07:34;;;;;;;2.28;2.08;;;21.50;99.90;;;21.69;83.04;97502.75;4982637;28;20049;-43
2022/08/02 07:09:59;;;;;;;4.68;2.75;;;21.70;99.90;;;21.77;81.72;97500.31;5001130;28;20469;-42
2022/08/02 07:12:25;;;;;;;3.40;2.40;;;21.80;99.90;;;21.86;80.99;97504.09;4999018;28;20405;-44
2022/08/02 07:14:52;;;;;;;2.78;2.05;;;21.90;99.90;;;21.95;81.58;97497.97;4999804;28;20076;-41
2022/08/02 07:17:17;;;;;;;3.83;2.30;;;22.00;99.90;;;22.11;80.30;97502.94;4998242;28;20032;-42
2022/08/02 07:19:43;;;;;;;3.10;2.60;;;22.10;99.90;;;22.14;77.56;97510.72;4996533;28;20405;-42
2022/08/02 07:22:09;;;;;;;3.78;2.10;;;22.20;99.90;;;22.25;78.70;97505.31;5000363;28;20065;-42
2022/08/02 07:24:35;;;;;;;2.95;2.42;;;22.20;99.90;;;22.44;78.57;97503.81;4977774;28;20485;-41
2022/08/02 07:27:00;;;;;;;3.45;2.33;;;22.50;99.90;;;22.66;77.13;97503.69;4999079;28;20764;-43
2022/08/02 07:29:27;;;;;;;4.30;2.92;;;22.70;99.90;;;22.89;75.78;97500.88;4999610;28;20045;-43
2022/08/02 07:31:53;;;;;;;2.80;2.60;;;23.00;99.90;;;23.11;72.69;97501.75;4999790;28;20129;-43
2022/08/02 07:34:18;;;;;;;2.60;2.40;;;23.20;99.90;;;23.31;72.95;97498.22;4998590;28;20030;-42
2022/08/02 07:36:44;;;;;;;2.67;2.08;;;23.40;99.90;;;23.48;72.43;97495.88;4998478;28;20315;-43
2022/08/02 07:39:10;;;;;;;2.63;2.10;;;23.50;99.90;;;23.64;70.91;97504.28;4992037;28;20466;-42
2022/08/02 07:41:35;;;;;;;4.95;3.00;;;23.60;99.90;;;23.61;68.93;97505.41;4994069;28;20026;-42
2022/08/02 07:44:01;;;;;;;5.80;2.70;;;23.70;99.90;;;23.65;70.25;97505.97;4994834;28;20046;-41
2022/08/02 07:46:27;;;;;;;3.28;2.65;;;23.70;99.90;;;23.60;68.47;97502.88;4989735;28;20061;-42
2022/08/02 07:48:53;;;;;;;3.95;2.92;;;23.60;99.90;;;23.49;69.78;97508.31;4996282;28;20041;-42
2022/08/02 07:51:22;;;;;;;3.92;2.03;;;23.50;99.90;;;23.54;69.44;97503.38;4996673;28;20371;-42
2022/08/02 07:53:48;;;;;;;3.80;2.22;;;23.50;99.90;;;23.42;70.19;97505.34;4996082;28;20088;-42
2022/08/02 07:56:14;;;;;;;3.25;2.50;;;23.50;99.90;;;23.38;70.58;97510.16;4999219;28;20505;-44
2022/08/02 07:58:42;;;;;;;3.33;2.60;;;23.40;99.90;;;23.47;71.01;97507.63;4998560;28;20034;-43
2022/08/02 08:01:09;;;;;;;2.90;2.47;;;23.50;99.90;;;23.51;70.18;97504.53;4999789;28;20034;-42
2022/08/02 08:03:34;;;;;;;4.18;2.35;;;23.60;99.90;;;23.57;69.67;97508.50;4992856;28;20065;-42
2022/08/02 08:06:01;;;;;;;4.35;2.40;;;23.50;99.90;;;23.48;69.25;97512.88;4996097;28;20034;-43
2022/08/02 08:08:27;;;;;;;5.72;2.88;;;23.50;99.90;;;23.36;68.96;97509.41;5003435;28;20033;-42
2022/08/02 08:10:53;;;;;;;3.95;2.70;;;23.40;99.90;;;23.47;69.57;97518.38;4995476;28;20291;-42
2022/08/02 08:13:19;;;;;;;2.72;2.33;;;23.40;99.90;;;23.52;69.26;97506.22;5001757;28;20041;-42
2022/08/02 08:15:44;;;;;;;4.05;2.90;;;23.50;99.90;;;23.59;68.30;97509.22;5001670;28;20052;-45
2022/08/02 08:18:10;;;;;;;3.97;3.53;;;23.60;99.90;;;23.50;66.21;97508.19;5001461;28;20030;-42
2022/08/02 08:20:37;;;;;;;3.15;2.50;;;23.60;99.90;;;23.52;66.22;97511.59;4999702;28;20139;-42
2022/08/02 08:23:03;;;;;;;5.65;3.00;;;23.50;99.90;;;23.53;66.17;97509.78;4986448;28;20033;-42
2022/08/02 08:25:28;;;;;;;4.05;2.67;;;23.50;99.90;;;23.58;66.38;97508.38;4999223;28;20034;-42
2022/08/02 08:27:54;;;;;;;3.13;2.83;;;23.60;99.90;;;23.65;66.28;97503.28;5003468;28;20061;-44
2022/08/02 08:30:21;;;;;;;7.88;2.75;;;23.60;99.90;;;23.74;65.62;97510.56;5001850;28;20274;-43
2022/08/02 08:32:47;;;;;;;5.75;3.22;;;23.70;99.90;;;23.75;64.53;97511.41;4998368;28;20394;-42
2022/08/02 08:35:13;;;;;;;3.80;2.60;;;23.80;99.90;;;23.82;65.47;97501.84;4995602;28;20026;-42
2022/08/02 08:37:39;;;;;;;3.40;3.08;;;23.80;99.90;;;23.96;66.13;97503.28;5002527;28;20675;-42
2022/08/02 08:40:07;;;;;;;5.65;2.97;;;23.90;99.90;;;24.06;66.94;97514.06;5000975;28;20408;-42
2022/08/02 08:42:36;;;;;;;3.10;2.70;;;24.00;99.90;;;24.12;67.90;97508.13;4995391;28;20029;-43
2022/08/02 08:45:01;;;;;;;4.40;2.97;;;24.10;99.90;;;24.11;62.43;97507.28;4997278;28;20105;-42
2022/08/02 08:47:34;;;;;;;4.32;2.70;;;24.10;99.90;;;24.12;63.38;97513.50;4998728;28;20042;-43
2022/08/02 08:50:19;;;;;;;4.28;3.53;;;24.10;99.90;;;24.25;63.38;97505.19;5002609;28;20337;-42
2022/08/02 08:53:05;;;;;;;3.50;2.70;;;24.20;99.90;;;24.33;61.69;97502.63;5000030;28;20118;-44
2022/08/02 08:55:34;;;;;;;7.80;3.78;;;24.30;99.90;;;24.44;60.95;97496.25;4998672;28;20030;-42
2022/08/02 08:58:01;;;;;;;6.75;3.90;;;24.40;99.90;;;24.41;60.42;97502.78;5002274;28;20552;-44
2022/08/02 09:00:29;;;;;;;5.43;3.55;;;24.40;99.90;;;24.35;60.70;97498.81;4999116;28;20038;-42
2022/08/02 09:02:57;;;;;;;5.63;3.50;;;24.40;99.70;;;24.39;60.18;97507.47;5001230;28;20117;-41
2022/08/02 09:05:24;;;;;;;4.20;2.95;;;24.40;99.70;;;24.58;60.66;97503.94;4998185;28;20736;-45
2022/08/02 09:07:51;;;;;;;4.78;3.75;;;24.50;99.90;;;24.70;59.11;97502.81;4998306;28;20381;-45
2022/08/02 09:10:32;;;;;;;5.13;4.20;;;24.70;99.20;;;24.83;58.14;97504.34;5000896;28;20042;-43
2022/08/02 09:13:17;;;;;;;6.00;4.30;;;24.80;98.70;;;24.79;57.36;97501.09;4996564;28;20030;-43
2022/08/02 09:16:03;;;;;;;4.22;3.80;;;24.80;98.20;;;24.76;57.13;97501.38;4996899;28;20030;-45
2022/08/02 09:18:30;;;;;;;3.90;3.38;;;24.80;98.10;;;24.81;57.35;97491.00;5000966;28;20046;-41
2022/08/02 09:21:02;;;;;;;5.25;3.47;;;24.70;98.20;;;24.62;58.33;97496.41;4996729;28;20540;-43
2022/08/02 09:23:38;;;;;;;3.43;3.00;;;24.60;98.30;;;24.28;59.24;97469.84;4997694;28;20040;-44
2022/08/02 09:26:10;;;;;;;3.50;3.17;;;24.40;98.60;;;24.17;61.54;97489.69;4998178;28;20618;-43
2022/08/02 09:28:41;;;;;;;5.22;3.40;;;24.10;99.00;;;24.12;61.22;97491.94;4983671;28;20101;-40
2022/08/02 09:31:11;;;;;;;3.33;3.03;;;24.10;99.40;;;24.29;61.37;97496.66;4999296;28;20036;-39
2022/08/02 09:33:40;;;;;;;9.40;4.05;;;24.30;99.40;;;24.43;59.87;97473.00;4978634;28;20040;-40
2022/08/02 09:36:15;;;;;;;3.90;3.50;;;24.50;98.90;;;24.62;59.45;97491.03;5000180;28;20033;-43
2022/08/02 09:39:03;;;;;;;5.82;4.20;;;24.60;98.70;;;24.66;58.23;97487.06;4998468;28;20029;-39
2022/08/02 09:41:33;;;;;;;5.03;4.07;;;24.80;97.80;;;24.83;58.22;97480.09;4999116;28;20033;-42
2022/08/02 09:44:02;;;;;;;4.13;3.72;;;24.90;97.70;;;25.09;58.13;97485.72;4993740;28;20172;-39
2022/08/02 09:46:31;;;;;;;5.95;3.25;;;25.10;97.80;;;25.41;56.10;97488.06;4996685;28;20462;-41
2022/08/02 09:49:01;;;;;;;4.50;3.28;;;25.40;97.30;;;25.74;53.85;97493.88;4999673;28;20509;-41
2022/08/02 09:51:34;;;;;;;4.82;3.25;;;25.70;96.30;;;25.94;53.26;97489.25;4999946;28;20044;-41
2022/08/02 09:54:03;;;;;;;4.38;3.40;;;25.90;95.70;;;26.12;52.09;97485.75;4999717;28;20457;-41
2022/08/02 09:56:43;;;;;;;4.35;3.53;;;26.10;95.30;;;26.25;50.26;97484.34;4984128;28;20049;-41
2022/08/02 09:59:10;;;;;;;4.68;3.58;;;26.30;94.40;;;26.36;49.86;97491.41;4992368;28;20038;-41
2022/08/02 10:01:37;;;;;;;7.93;3.15;;;26.40;93.70;;;26.47;49.98;97484.91;5000210;28;20108;-41
2022/08/02 10:04:10;;;;;;;5.50;4.07;;;26.50;93.60;;;26.36;49.52;97488.69;4999855;28;20038;-41
2022/08/02 10:06:38;;;;;;;4.82;3.92;;;26.50;93.00;;;26.31;50.12;97482.91;4984626;28;20046;-41
2022/08/02 10:09:06;;;;;;;4.55;3.20;;;26.40;93.10;;;26.27;49.93;97487.78;4995911;28;20084;-41
2022/08/02 10:11:33;;;;;;;4.43;3.60;;;26.30;92.70;;;26.32;50.35;97475.63;4995392;28;20081;-40
2022/08/02 10:14:01;;;;;;;5.25;3.50;;;26.40;93.30;;;26.53;50.55;97470.78;4989690;28;20072;-41
2022/08/02 10:16:27;;;;;;;4.13;3.30;;;26.50;93.40;;;26.63;50.14;97471.56;4975370;28;20508;-41
2022/08/02 10:18:55;;;;;;;4.55;3.00;;;26.60;93.20;;;26.64;50.06;97475.97;4990264;28;20042;-43
2022/08/02 10:21:47;;;;;;;4.05;3.60;;;26.60;92.90;;;26.58;49.53;97478.44;4997167;28;20479;-41
2022/08/02 10:24:21;;;;;;;4.43;3.42;;;26.70;92.50;;;26.63;49.36;97473.41;4996855;28;20053;-41
2022/08/02 10:26:48;;;;;;;6.05;3.30;;;26.70;92.20;;;26.51;49.28;97463.81;4993580;28;20091;-42
2022/08/02 10:29:29;;;;;;;4.55;3.60;;;26.60;92.00;;;26.20;49.46;97473.16;4995142;28;20041;-43